Time,TemperatureF,DewpointF,PressureIn,WindDirection,WindDirectionDegrees,WindSpeedMPH,WindSpeedGustMPH,Humidity,HourlyPrecipIn,Conditions,Clouds,dailyrainin,SolarRadiationWatts/m^2,SoftwareType,DateUTC
2013-01-28 00:32:00,34.0,29.0,-100.00,WSW,243,5.0,9.0,82,0.00,,,0.00,0.000000,,2013-01-28 05:32:00,
2013-01-28 00:42:00,34.0,29.0,-100.00,WSW,243,5.0,9.0,82,0.00,,,0.00,0.000000,,2013-01-28 05:42:00,
2013-01-28 00:52:00,34.0,29.0,-100.00,WSW,243,5.0,9.0,82,0.00,,,0.00,0.000000,,2013-01-28 05:52:00,
2013-01-28 01:02:00,34.0,29.0,-100.00,WSW,243,5.0,9.0,82,0.00,,,0.00,0.000000,,2013-01-28 06:02:00,
2013-01-28 01:32:00,33.0,28.0,-100.00,WSW,248,5.0,11.0,80,0.00,,,0.00,0.000000,,2013-01-28 06:32:00,
2013-01-28 01:42:00,33.0,28.0,-100.00,WSW,248,5.0,11.0,80,0.00,,,0.00,0.000000,,2013-01-28 06:42:00,
2013-01-28 01:52:00,33.0,28.0,-100.00,WSW,248,5.0,11.0,80,0.00,,,0.00,0.000000,,2013-01-28 06:52:00,
2013-01-28 02:03:00,33.0,28.0,-100.00,WSW,248,5.0,11.0,80,0.00,,,0.00,0.000000,,2013-01-28 07:03:00,
2013-01-28 02:22:00,33.0,28.0,-100.00,SSW,206,1.0,6.0,81,0.00,,,0.00,0.000000,,2013-01-28 07:22:00,
2013-01-28 02:32:00,33.0,28.0,-100.00,SSW,206,1.0,6.0,81,0.00,,,0.00,0.000000,,2013-01-28 07:32:00,
2013-01-28 02:42:00,33.0,28.0,-100.00,SSW,206,1.0,6.0,81,0.00,,,0.00,0.000000,,2013-01-28 07:42:00,
2013-01-28 02:52:00,33.0,28.0,-100.00,SSW,206,1.0,6.0,81,0.00,,,0.00,0.000000,,2013-01-28 07:52:00,
2013-01-28 03:01:00,33.0,28.0,-100.00,SSW,206,1.0,6.0,81,0.00,,,0.00,0.000000,,2013-01-28 08:01:00,
2013-01-28 03:32:00,33.0,28.0,-100.00,WSW,237,2.0,4.0,82,0.00,,,0.00,0.000000,,2013-01-28 08:32:00,
2013-01-28 03:42:00,33.0,28.0,-100.00,WSW,237,2.0,4.0,82,0.00,,,0.00,0.000000,,2013-01-28 08:42:00,
2013-01-28 03:52:00,33.0,28.0,-100.00,WSW,237,2.0,4.0,82,0.00,,,0.00,0.000000,,2013-01-28 08:52:00,
2013-01-28 04:02:00,33.0,28.0,-100.00,WSW,237,2.0,4.0,82,0.00,,,0.00,0.000000,,2013-01-28 09:02:00,
2013-01-28 04:32:00,34.0,29.0,-100.00,SW,222,2.0,4.0,83,0.00,,,0.00,0.000000,,2013-01-28 09:32:00,
2013-01-28 04:42:00,34.0,29.0,-100.00,SW,222,2.0,4.0,83,0.00,,,0.00,0.000000,,2013-01-28 09:42:00,
2013-01-28 04:52:00,34.0,29.0,-100.00,SW,222,2.0,4.0,83,0.00,,,0.00,0.000000,,2013-01-28 09:52:00,
2013-01-28 05:02:00,34.0,29.0,-100.00,SW,222,2.0,4.0,83,0.00,,,0.00,0.000000,,2013-01-28 10:02:00,
2013-01-28 05:32:00,36.0,28.0,-100.00,WSW,254,4.0,7.0,72,0.00,,,0.00,0.000000,,2013-01-28 10:32:00,
2013-01-28 05:42:00,36.0,28.0,-100.00,WSW,254,4.0,7.0,72,0.00,,,0.00,0.000000,,2013-01-28 10:42:00,
2013-01-28 05:52:00,36.0,28.0,-100.00,WSW,254,4.0,7.0,72,0.00,,,0.00,0.000000,,2013-01-28 10:52:00,
2013-01-28 06:02:00,36.0,28.0,-100.00,WSW,254,4.0,7.0,72,0.00,,,0.00,0.000000,,2013-01-28 11:02:00,
2013-01-28 06:32:00,33.0,27.0,-100.00,West,265,2.0,7.0,79,0.00,,,0.00,0.000000,,2013-01-28 11:32:00,
2013-01-28 06:42:00,33.0,27.0,-100.00,West,265,2.0,7.0,79,0.00,,,0.00,0.000000,,2013-01-28 11:42:00,
2013-01-28 06:52:00,33.0,27.0,-100.00,West,265,2.0,7.0,79,0.00,,,0.00,0.000000,,2013-01-28 11:52:00,
2013-01-28 07:03:00,33.0,27.0,-100.00,West,265,2.0,7.0,79,0.00,,,0.00,0.000000,,2013-01-28 12:03:00,
2013-01-28 07:23:00,32.0,29.0,-100.00,WSW,251,2.0,4.0,88,0.00,,,0.00,0.000000,,2013-01-28 12:23:00,
2013-01-28 07:33:00,32.0,29.0,-100.00,WSW,251,2.0,4.0,88,0.00,,,0.00,0.000000,,2013-01-28 12:33:00,
2013-01-28 07:42:00,32.0,29.0,-100.00,WSW,251,2.0,4.0,88,0.00,,,0.00,0.000000,,2013-01-28 12:42:00,
2013-01-28 07:53:00,32.0,29.0,-100.00,WSW,251,2.0,4.0,88,0.00,,,0.00,0.000000,,2013-01-28 12:53:00,
2013-01-28 08:03:00,32.0,29.0,-100.00,WSW,251,2.0,4.0,88,0.00,,,0.00,0.000000,,2013-01-28 13:03:00,
2013-01-28 08:23:00,34.0,31.0,-100.00,ENE,61,1.0,4.0,90,0.00,,,0.00,6.000000,,2013-01-28 13:23:00,
2013-01-28 08:33:00,34.0,31.0,-100.00,ENE,61,1.0,4.0,90,0.00,,,0.00,6.000000,,2013-01-28 13:33:00,
2013-01-28 08:43:00,34.0,31.0,-100.00,ENE,61,1.0,4.0,90,0.00,,,0.00,6.000000,,2013-01-28 13:43:00,
2013-01-28 08:53:00,34.0,31.0,-100.00,ENE,61,1.0,4.0,90,0.00,,,0.00,6.000000,,2013-01-28 13:53:00,
2013-01-28 09:03:00,34.0,31.0,-100.00,ENE,61,1.0,4.0,90,0.00,,,0.00,6.000000,,2013-01-28 14:03:00,
2013-01-28 09:33:00,40.0,37.0,-100.00,WSW,250,1.0,4.0,89,0.00,,,0.00,49.000000,,2013-01-28 14:33:00,
2013-01-28 09:43:00,40.0,37.0,-100.00,WSW,250,1.0,4.0,89,0.00,,,0.00,49.000000,,2013-01-28 14:43:00,
2013-01-28 09:53:00,40.0,37.0,-100.00,WSW,250,1.0,4.0,89,0.00,,,0.00,49.000000,,2013-01-28 14:53:00,
2013-01-28 10:03:00,40.0,37.0,-100.00,WSW,250,1.0,4.0,89,0.00,,,0.00,49.000000,,2013-01-28 15:03:00,
2013-01-28 10:04:00,45.0,40.0,-100.00,South,190,2.0,3.0,83,0.00,,,0.00,100.000000,,2013-01-28 15:04:00,
2013-01-28 10:33:00,45.0,40.0,-100.00,South,190,2.0,3.0,83,0.00,,,0.00,100.000000,,2013-01-28 15:33:00,
2013-01-28 10:43:00,45.0,40.0,-100.00,South,190,2.0,3.0,83,0.00,,,0.00,100.000000,,2013-01-28 15:43:00,
2013-01-28 10:53:00,45.0,40.0,-100.00,South,190,2.0,3.0,83,0.00,,,0.00,100.000000,,2013-01-28 15:53:00,
2013-01-28 11:33:00,56.0,47.0,-100.00,WSW,247,5.0,9.0,73,0.00,,,0.00,274.000000,,2013-01-28 16:33:00,
2013-01-28 11:43:00,56.0,47.0,-100.00,WSW,247,5.0,9.0,73,0.00,,,0.00,274.000000,,2013-01-28 16:43:00,
2013-01-28 11:53:00,56.0,47.0,-100.00,WSW,247,5.0,9.0,73,0.00,,,0.00,274.000000,,2013-01-28 16:53:00,
2013-01-28 12:02:00,56.0,47.0,-100.00,WSW,247,5.0,9.0,73,0.00,,,0.00,274.000000,,2013-01-28 17:02:00,
2013-01-28 12:33:00,57.0,44.0,-100.00,SW,225,7.0,17.0,61,0.00,,,-99.99,408.000000,,2013-01-28 17:33:00,
2013-01-28 12:42:00,57.0,44.0,-100.00,SW,225,7.0,17.0,61,0.00,,,-99.99,408.000000,,2013-01-28 17:42:00,
2013-01-28 12:53:00,57.0,44.0,-100.00,SW,225,7.0,17.0,61,0.00,,,-99.99,408.000000,,2013-01-28 17:53:00,
2013-01-28 13:03:00,57.0,44.0,-100.00,SW,225,7.0,17.0,61,0.00,,,-99.99,408.000000,,2013-01-28 18:03:00,
2013-01-28 13:23:00,60.0,43.0,-100.00,SW,234,6.0,18.0,53,0.00,,,0.00,374.000000,,2013-01-28 18:23:00,
2013-01-28 13:33:00,60.0,43.0,-100.00,SW,234,6.0,18.0,53,0.00,,,0.00,374.000000,,2013-01-28 18:33:00,
2013-01-28 13:43:00,60.0,43.0,-100.00,SW,234,6.0,18.0,53,0.00,,,0.00,374.000000,,2013-01-28 18:43:00,
2013-01-28 13:53:00,60.0,43.0,-100.00,SW,234,6.0,18.0,53,0.00,,,0.00,374.000000,,2013-01-28 18:53:00,
2013-01-28 14:02:00,60.0,43.0,-100.00,SW,234,6.0,18.0,53,0.00,,,0.00,374.000000,,2013-01-28 19:02:00,
2013-01-28 14:33:00,61.0,42.0,-100.00,SW,235,8.0,17.0,49,0.00,,,0.00,540.000000,,2013-01-28 19:33:00,
2013-01-28 14:43:00,61.0,42.0,-100.00,SW,235,8.0,17.0,49,0.00,,,0.00,540.000000,,2013-01-28 19:43:00,
2013-01-28 14:53:00,61.0,42.0,-100.00,SW,235,8.0,17.0,49,0.00,,,0.00,540.000000,,2013-01-28 19:53:00,
2013-01-28 15:03:00,61.0,42.0,-100.00,SW,235,8.0,17.0,49,0.00,,,0.00,540.000000,,2013-01-28 20:03:00,
2013-01-28 15:33:00,60.0,41.0,-100.00,SW,234,8.0,20.0,50,0.00,,,0.00,491.000000,,2013-01-28 20:33:00,
2013-01-28 15:43:00,60.0,41.0,-100.00,SW,234,8.0,20.0,50,0.00,,,0.00,491.000000,,2013-01-28 20:43:00,
2013-01-28 15:53:00,60.0,41.0,-100.00,SW,234,8.0,20.0,50,0.00,,,0.00,491.000000,,2013-01-28 20:53:00,
2013-01-28 16:03:00,60.0,41.0,-100.00,SW,234,8.0,20.0,50,0.00,,,0.00,491.000000,,2013-01-28 21:03:00,
2013-01-28 16:34:00,60.0,41.0,-100.00,SW,226,6.0,18.0,50,0.00,,,0.00,302.000000,,2013-01-28 21:34:00,
2013-01-28 16:43:00,60.0,41.0,-100.00,SW,226,6.0,18.0,50,0.00,,,0.00,302.000000,,2013-01-28 21:43:00,
2013-01-28 16:53:00,60.0,41.0,-100.00,SW,226,6.0,18.0,50,0.00,,,0.00,302.000000,,2013-01-28 21:53:00,
2013-01-28 17:02:00,60.0,41.0,-100.00,SW,226,6.0,18.0,50,0.00,,,0.00,302.000000,,2013-01-28 22:02:00,
2013-01-28 17:23:00,57.0,41.0,-100.00,SW,221,5.0,12.0,54,0.00,,,0.00,186.000000,,2013-01-28 22:23:00,
2013-01-28 17:33:00,57.0,41.0,-100.00,SW,221,5.0,12.0,54,0.00,,,0.00,186.000000,,2013-01-28 22:33:00,
2013-01-28 17:42:00,57.0,41.0,-100.00,SW,221,5.0,12.0,54,0.00,,,0.00,186.000000,,2013-01-28 22:42:00,
2013-01-28 17:52:00,57.0,41.0,-100.00,SW,221,5.0,12.0,54,0.00,,,0.00,186.000000,,2013-01-28 22:52:00,
2013-01-28 18:02:00,57.0,41.0,-100.00,SW,221,5.0,12.0,54,0.00,,,0.00,186.000000,,2013-01-28 23:02:00,
2013-01-28 18:33:00,52.0,41.0,-100.00,SSW,203,2.0,11.0,66,0.00,,,0.00,12.000000,,2013-01-28 23:33:00,
2013-01-28 18:42:00,52.0,41.0,-100.00,SSW,203,2.0,11.0,66,0.00,,,0.00,12.000000,,2013-01-28 23:42:00,
2013-01-28 18:53:00,52.0,41.0,-100.00,SSW,203,2.0,11.0,66,0.00,,,0.00,12.000000,,2013-01-28 23:53:00,
2013-01-28 19:02:00,52.0,41.0,-100.00,SSW,203,2.0,11.0,66,0.00,,,0.00,12.000000,,2013-01-29 00:02:00,
2013-01-28 19:33:00,45.0,40.0,-100.00,WSW,242,1.0,6.0,81,0.00,,,0.00,0.000000,,2013-01-29 00:33:00,
2013-01-28 19:42:00,45.0,40.0,-100.00,WSW,242,1.0,6.0,81,0.00,,,0.00,0.000000,,2013-01-29 00:42:00,
2013-01-28 19:52:00,45.0,40.0,-100.00,WSW,242,1.0,6.0,81,0.00,,,0.00,0.000000,,2013-01-29 00:52:00,
2013-01-28 20:02:00,45.0,40.0,-100.00,WSW,242,1.0,6.0,81,0.00,,,0.00,0.000000,,2013-01-29 01:02:00,
2013-01-28 20:32:00,42.0,39.0,-100.00,ESE,114,2.0,4.0,88,0.00,,,0.00,0.000000,,2013-01-29 01:32:00,
2013-01-28 20:42:00,42.0,39.0,-100.00,ESE,114,2.0,4.0,88,0.00,,,0.00,0.000000,,2013-01-29 01:42:00,
2013-01-28 20:53:00,42.0,39.0,-100.00,ESE,114,2.0,4.0,88,0.00,,,0.00,0.000000,,2013-01-29 01:53:00,
2013-01-28 21:02:00,42.0,39.0,-100.00,ESE,114,2.0,4.0,88,0.00,,,0.00,0.000000,,2013-01-29 02:02:00,
2013-01-28 21:33:00,41.0,39.0,-100.00,NE,36,2.0,4.0,91,0.00,,,0.00,0.000000,,2013-01-29 02:33:00,
2013-01-28 21:42:00,41.0,39.0,-100.00,NE,36,2.0,4.0,91,0.00,,,0.00,0.000000,,2013-01-29 02:42:00,
2013-01-28 21:53:00,41.0,39.0,-100.00,NE,36,2.0,4.0,91,0.00,,,0.00,0.000000,,2013-01-29 02:53:00,
2013-01-28 22:03:00,41.0,39.0,-100.00,NE,36,2.0,4.0,91,0.00,,,0.00,0.000000,,2013-01-29 03:03:00,
2013-01-28 22:22:00,39.0,37.0,-100.00,East,79,2.0,5.0,92,0.00,,,0.00,0.000000,,2013-01-29 03:22:00,
2013-01-28 22:32:00,39.0,37.0,-100.00,East,79,2.0,5.0,92,0.00,,,0.00,0.000000,,2013-01-29 03:32:00,
2013-01-28 22:42:00,39.0,37.0,-100.00,East,79,2.0,5.0,92,0.00,,,0.00,0.000000,,2013-01-29 03:42:00,
2013-01-28 22:53:00,39.0,37.0,-100.00,East,79,2.0,5.0,92,0.00,,,0.00,0.000000,,2013-01-29 03:53:00,
2013-01-28 23:02:00,39.0,37.0,-100.00,East,79,2.0,5.0,92,0.00,,,0.00,0.000000,,2013-01-29 04:02:00,
2013-01-28 23:32:00,38.0,36.0,-100.00,NNE,20,2.0,5.0,94,0.00,,,0.00,0.000000,,2013-01-29 04:32:00,
2013-01-28 23:42:00,38.0,36.0,-100.00,NNE,20,2.0,5.0,94,0.00,,,0.00,0.000000,,2013-01-29 04:42:00,
2013-01-28 23:52:00,38.0,36.0,-100.00,NNE,20,2.0,5.0,94,0.00,,,0.00,0.000000,,2013-01-29 04:52:00,